createdAt,value
2018-06-29T00:01:16.831Z,101427.25
2018-06-29T00:03:43.861Z,101419.15
2018-06-29T00:06:10.916Z,101421.92
2018-06-29T00:08:37.930Z,101416.09
2018-06-29T00:11:05.025Z,101420.37
2018-06-29T00:13:32.083Z,101419.95
2018-06-29T00:15:59.248Z,101416.56
2018-06-29T00:18:26.257Z,101419.45
2018-06-29T00:20:53.298Z,101419.30
2018-06-29T00:23:20.843Z,101421.62
2018-06-29T00:25:48.043Z,101414.69
2018-06-29T00:28:15.142Z,101412.91
2018-06-29T00:30:42.258Z,101415.53
2018-06-29T00:33:09.372Z,101415.06
2018-06-29T00:35:36.469Z,101420.47
2018-06-29T00:38:03.519Z,101417.53
2018-06-29T00:40:30.661Z,101420.31
2018-06-29T00:42:57.696Z,101416.36
2018-06-29T00:45:24.764Z,101415.02
2018-06-29T00:47:51.786Z,101415.11
2018-06-29T00:50:18.825Z,101416.35
2018-06-29T00:52:45.930Z,101417.01
2018-06-29T00:55:12.994Z,101415.89
2018-06-29T00:57:40.003Z,101418.11
2018-06-29T01:00:08.145Z,101414.26
2018-06-29T01:02:35.465Z,101419.30
2018-06-29T01:05:02.549Z,101409.25
2018-06-29T01:07:29.659Z,101406.73
2018-06-29T01:09:56.665Z,101398.98
2018-06-29T01:12:23.794Z,101399.15
2018-06-29T01:14:50.840Z,101403.55
2018-06-29T01:17:17.872Z,101398.02
2018-06-29T01:19:44.973Z,101395.89
2018-06-29T01:22:12.329Z,101390.40
2018-06-29T01:24:39.341Z,101385.14
2018-06-29T01:27:06.346Z,101380.55
2018-06-29T01:29:33.475Z,101378.18
2018-06-29T01:32:00.486Z,101377.78
2018-06-29T01:34:27.681Z,101370.83
2018-06-29T01:36:54.764Z,101370.59
2018-06-29T01:39:22.076Z,101371.29
2018-06-29T01:41:49.104Z,101375.42
2018-06-29T01:44:16.149Z,101385.27
2018-06-29T01:46:43.397Z,101382.61
2018-06-29T01:49:10.438Z,101374.05
2018-06-29T01:51:37.605Z,101371.65
2018-06-29T01:54:04.690Z,101368.02
2018-06-29T01:56:31.756Z,101372.09
2018-06-29T01:58:58.768Z,101375.14
2018-06-29T02:01:25.806Z,101375.44
2018-06-29T02:03:52.985Z,101366.34
2018-06-29T02:06:20.112Z,101366.64
2018-06-29T02:08:47.144Z,101367.16
2018-06-29T02:11:14.202Z,101357.48
2018-06-29T02:13:41.202Z,101358.91
2018-06-29T02:16:08.211Z,101354.98
2018-06-29T02:18:35.363Z,101351.73
2018-06-29T02:21:02.449Z,101345.81
2018-06-29T02:23:29.554Z,101347.30
2018-06-29T02:25:56.587Z,101349.59
2018-06-29T02:28:23.602Z,101344.33
2018-06-29T02:30:50.730Z,101339.33
2018-06-29T02:33:17.658Z,101342.32
2018-06-29T02:35:44.671Z,101339.16
2018-06-29T02:38:18.059Z,101343.16
2018-06-29T02:40:45.235Z,101342.77
2018-06-29T02:43:12.269Z,101341.89
2018-06-29T02:45:39.269Z,101342.65
2018-06-29T02:48:06.356Z,101343.67
2018-06-29T02:50:33.406Z,101340.67
2018-06-29T02:53:00.422Z,101333.94
2018-06-29T02:55:27.522Z,101332.13
2018-06-29T02:57:54.551Z,101334.80
2018-06-29T03:00:21.594Z,101339.38
2018-06-29T03:02:48.773Z,101337.75
2018-06-29T03:05:15.889Z,101339.53
2018-06-29T03:07:42.991Z,101338.41
2018-06-29T03:10:10.038Z,101337.15
2018-06-29T03:12:37.040Z,101330.88
2018-06-29T03:15:04.379Z,101329.81
2018-06-29T03:17:31.390Z,101334.86
2018-06-29T03:19:58.430Z,101331.09
2018-06-29T03:22:25.481Z,101332.10
2018-06-29T03:24:52.512Z,101329.86
2018-06-29T03:27:19.547Z,101329.44
2018-06-29T03:29:46.622Z,101328.97
2018-06-29T03:32:13.796Z,101329.86
2018-06-29T03:34:40.825Z,101330.08
2018-06-29T03:37:07.831Z,101330.68
2018-06-29T03:39:34.933Z,101331.81
2018-06-29T03:42:02.027Z,101331.73
2018-06-29T03:44:29.073Z,101337.50
2018-06-29T03:46:56.070Z,101332.47
2018-06-29T03:49:23.113Z,101322.68
2018-06-29T03:51:50.137Z,101328.33
2018-06-29T03:54:17.244Z,101325.71
2018-06-29T03:56:44.265Z,101323.96
2018-06-29T03:59:11.694Z,101322.68
2018-06-29T04:01:38.818Z,101313.44
2018-06-29T04:04:06.093Z,101318.78
2018-06-29T04:06:33.250Z,101314.73
2018-06-29T04:09:00.305Z,101317.83
2018-06-29T04:11:27.337Z,101310.38
2018-06-29T04:13:54.768Z,101309.09
2018-06-29T04:16:21.921Z,101315.19
2018-06-29T04:18:48.941Z,101314.33
2018-06-29T04:21:15.941Z,101315.83
2018-06-29T04:23:42.993Z,101321.45
2018-06-29T04:26:10.003Z,101324.84
2018-06-29T04:28:37.092Z,101318.41
2018-06-29T04:31:04.196Z,101317.41
2018-06-29T04:33:31.434Z,101320.66
2018-06-29T04:35:58.437Z,101319.72
2018-06-29T04:38:25.450Z,101324.80
2018-06-29T04:40:52.502Z,101320.20
2018-06-29T04:43:19.659Z,101313.27
2018-06-29T04:45:46.689Z,101308.27
2018-06-29T04:48:13.773Z,101318.03
2018-06-29T04:50:40.801Z,101312.88
2018-06-29T04:53:07.899Z,101315.72
2018-06-29T04:55:34.934Z,101311.23
2018-06-29T04:58:01.988Z,101310.08
2018-06-29T05:00:29.126Z,101309.05
2018-06-29T05:02:56.181Z,101312.55
2018-06-29T05:05:23.733Z,101305.38
2018-06-29T05:07:50.763Z,101309.51
2018-06-29T05:10:17.807Z,101303.12
2018-06-29T05:12:44.867Z,101301.86
2018-06-29T05:15:11.921Z,101304.22
2018-06-29T05:17:38.952Z,101302.33
2018-06-29T05:20:12.281Z,101300.42
2018-06-29T05:22:39.656Z,101300.36
2018-06-29T05:25:06.699Z,101297.99
2018-06-29T05:27:33.790Z,101297.37
2018-06-29T05:30:00.844Z,101295.30
2018-06-29T05:32:27.942Z,101292.77
2018-06-29T05:34:55.001Z,101295.13
2018-06-29T05:37:22.838Z,101295.36
2018-06-29T05:39:50.025Z,101296.38
2018-06-29T05:42:17.291Z,101294.23
2018-06-29T05:44:44.634Z,101300.09
2018-06-29T05:47:11.670Z,101295.57
2018-06-29T05:49:38.673Z,101293.11
2018-06-29T05:52:05.799Z,101285.33
2018-06-29T05:54:32.833Z,101292.28
2018-06-29T05:57:00.195Z,101292.70
2018-06-29T05:59:27.269Z,101297.15
2018-06-29T06:01:54.377Z,101288.55
2018-06-29T06:04:21.393Z,101287.13
2018-06-29T06:06:55.545Z,101285.92
2018-06-29T06:09:22.563Z,101279.33
2018-06-29T06:11:49.740Z,101278.83
2018-06-29T06:14:16.776Z,101278.22
2018-06-29T06:16:43.813Z,101276.18
2018-06-29T06:19:22.501Z,101275.66
2018-06-29T06:21:49.552Z,101276.95
2018-06-29T06:24:16.792Z,101287.49
2018-06-29T06:26:43.825Z,101287.72
2018-06-29T06:29:10.843Z,101289.98
2018-06-29T06:31:37.951Z,101285.14
2018-06-29T06:34:05.084Z,101280.44
2018-06-29T06:36:32.549Z,101279.71
2018-06-29T06:38:59.582Z,101276.49
2018-06-29T06:41:26.630Z,101271.67
2018-06-29T06:43:54.167Z,101271.20
2018-06-29T06:46:21.196Z,101277.13
2018-06-29T06:48:48.314Z,101271.63
2018-06-29T06:51:15.350Z,101271.39
2018-06-29T06:53:42.534Z,101271.88
2018-06-29T06:56:09.504Z,101272.44
2018-06-29T06:58:36.542Z,101261.47
2018-06-29T07:01:03.793Z,101267.36
2018-06-29T07:03:30.821Z,101256.37
2018-06-29T07:05:57.970Z,101264.00
2018-06-29T07:08:24.989Z,101259.39
2018-06-29T07:10:52.010Z,101260.30
2018-06-29T07:13:19.124Z,101257.99
2018-06-29T07:15:46.141Z,101254.30
2018-06-29T07:18:13.224Z,101249.19
2018-06-29T07:20:40.316Z,101246.17
2018-06-29T07:23:07.571Z,101245.80
2018-06-29T07:25:34.590Z,101238.91
2018-06-29T07:28:01.786Z,101247.97
2018-06-29T07:30:28.816Z,101247.67
2018-06-29T07:32:55.825Z,101239.72
2018-06-29T07:35:22.868Z,101238.33
2018-06-29T07:37:49.996Z,101235.47
2018-06-29T07:40:17.025Z,101238.27
2018-06-29T07:42:44.113Z,101233.73
2018-06-29T07:45:11.120Z,101229.91
2018-06-29T07:47:38.295Z,101234.28
2018-06-29T07:50:05.325Z,101239.55
2018-06-29T07:52:32.398Z,101242.89
2018-06-29T07:54:59.391Z,101242.00
2018-06-29T07:57:26.475Z,101242.53
2018-06-29T07:59:53.518Z,101237.50
2018-06-29T08:02:20.573Z,101240.84
2018-06-29T08:04:47.611Z,101232.77
2018-06-29T08:07:14.653Z,101239.46
2018-06-29T08:09:41.762Z,101231.39
2018-06-29T08:12:08.854Z,101232.55
2018-06-29T08:14:35.880Z,101226.16
2018-06-29T08:17:03.040Z,101226.91
2018-06-29T08:20:18.758Z,101223.37
2018-06-29T08:22:45.931Z,101225.13
2018-06-29T08:25:14.237Z,101232.81
2018-06-29T08:27:41.487Z,101232.05
2018-06-29T08:30:09.445Z,101232.88
2018-06-29T08:32:36.741Z,101232.39
2018-06-29T08:35:03.808Z,101233.89
2018-06-29T08:37:30.846Z,101233.23
2018-06-29T08:39:58.017Z,101226.56
2018-06-29T08:42:25.071Z,101226.34
2018-06-29T08:44:52.106Z,101230.70
2018-06-29T08:47:19.484Z,101230.86
2018-06-29T08:49:46.509Z,101224.03
2018-06-29T08:52:20.598Z,101220.72
2018-06-29T08:54:47.608Z,101218.42
2018-06-29T08:57:15.065Z,101225.31
2018-06-29T08:59:42.169Z,101221.48
2018-06-29T09:02:09.203Z,101213.41
2018-06-29T09:04:36.206Z,101218.81
2018-06-29T09:07:03.328Z,101217.05
2018-06-29T09:09:30.611Z,101222.27
2018-06-29T09:11:58.418Z,101218.18
2018-06-29T09:14:25.565Z,101223.67
2018-06-29T09:16:53.002Z,101225.52
2018-06-29T09:19:20.063Z,101216.56
2018-06-29T09:21:47.133Z,101221.53
2018-06-29T09:24:14.435Z,101226.02
2018-06-29T09:26:42.036Z,101220.97
2018-06-29T09:29:09.141Z,101219.51
2018-06-29T09:31:36.320Z,101220.87
2018-06-29T09:34:03.398Z,101220.77
2018-06-29T09:36:30.841Z,101222.02
2018-06-29T09:38:57.858Z,101221.40
2018-06-29T09:41:24.897Z,101212.25
2018-06-29T09:43:51.953Z,101221.92
2018-06-29T09:46:18.986Z,101218.87
2018-06-29T09:48:46.084Z,101223.05
2018-06-29T09:51:13.239Z,101225.53
2018-06-29T09:53:40.273Z,101219.12
2018-06-29T09:56:07.467Z,101219.06
2018-06-29T09:58:34.641Z,101214.72
2018-06-29T10:01:01.668Z,101214.19
2018-06-29T10:03:28.736Z,101212.50
2018-06-29T10:05:55.833Z,101201.07
2018-06-29T10:08:22.878Z,101205.16
2018-06-29T10:10:49.985Z,101204.05
2018-06-29T10:13:17.012Z,101196.95
2018-06-29T10:15:44.106Z,101186.06
2018-06-29T10:18:11.157Z,101186.16
2018-06-29T10:20:38.686Z,101185.55
2018-06-29T10:23:05.918Z,101186.64
2018-06-29T10:26:01.372Z,101179.70
2018-06-29T10:28:33.434Z,101180.42
2018-06-29T10:31:02.415Z,101169.95
2018-06-29T10:33:37.152Z,101173.72
2018-06-29T10:36:10.863Z,101165.77
2018-06-29T10:38:46.232Z,101171.89
2018-06-29T10:41:24.912Z,101162.17
2018-06-29T10:43:57.457Z,101161.78
2018-06-29T10:46:25.989Z,101160.62
2018-06-29T10:48:56.528Z,101164.55
2018-06-29T10:51:30.680Z,101162.09
2018-06-29T10:54:05.416Z,101154.16
2018-06-29T10:59:40.447Z,101150.38
2018-06-29T11:02:13.426Z,101151.13
2018-06-29T11:04:47.401Z,101146.39
2018-06-29T11:07:16.483Z,101145.07
2018-06-29T11:09:46.208Z,101150.73
2018-06-29T11:12:17.537Z,101156.86
2018-06-29T11:14:52.586Z,101150.38
2018-06-29T11:17:28.471Z,101154.72
2018-06-29T11:19:57.769Z,101156.41
2018-06-29T11:22:31.827Z,101152.77
2018-06-29T11:25:03.970Z,101156.41
2018-06-29T11:27:37.565Z,101155.97
2018-06-29T11:30:13.530Z,101152.45
2018-06-29T11:32:47.666Z,101148.39
2018-06-29T11:35:17.017Z,101147.53
2018-06-29T11:38:03.072Z,101147.38
2018-06-29T11:40:38.826Z,101151.84
2018-06-29T11:43:17.605Z,101156.24
2018-06-29T11:45:55.314Z,101154.21
2018-06-29T11:48:31.352Z,101149.95
2018-06-29T11:51:06.077Z,101143.17
2018-06-29T11:53:37.719Z,101137.14
2018-06-29T11:56:10.514Z,101140.50
2018-06-29T11:58:38.068Z,101143.05
2018-06-29T12:01:13.739Z,101139.59
2018-06-29T12:03:46.862Z,101134.14
2018-06-29T12:08:57.117Z,101137.15
2018-06-29T12:11:27.401Z,101132.91
2018-06-29T12:13:54.601Z,101130.42
2018-06-29T12:16:21.672Z,101130.92
2018-06-29T12:18:48.703Z,101129.05
2018-06-29T12:21:15.717Z,101131.26
2018-06-29T12:23:43.023Z,101135.64
2018-06-29T12:26:10.058Z,101128.46
2018-06-29T12:28:37.122Z,101123.51
2018-06-29T12:31:04.209Z,101119.28
2018-06-29T12:33:31.380Z,101123.14
2018-06-29T12:35:58.422Z,101126.52
2018-06-29T12:38:25.600Z,101130.88
2018-06-29T12:40:52.693Z,101128.31
2018-06-29T12:43:19.962Z,101127.45
2018-06-29T12:45:46.983Z,101119.29
2018-06-29T12:48:14.066Z,101120.53
2018-06-29T12:50:41.205Z,101112.81
2018-06-29T12:53:08.252Z,101110.24
2018-06-29T12:55:35.506Z,101116.25
2018-06-29T12:58:02.712Z,101116.67
2018-06-29T13:00:29.743Z,101109.39
2018-06-29T13:02:56.764Z,101110.14
2018-06-29T13:05:23.904Z,101112.67
2018-06-29T13:07:51.002Z,101111.33
2018-06-29T13:10:18.039Z,101110.41
2018-06-29T13:12:45.066Z,101112.67
2018-06-29T13:15:12.132Z,101114.87
2018-06-29T13:17:39.153Z,101107.64
2018-06-29T13:20:07.085Z,101110.20
2018-06-29T13:22:34.145Z,101098.05
2018-06-29T13:25:01.211Z,101099.49
2018-06-29T13:27:28.328Z,101102.94
2018-06-29T13:29:55.346Z,101104.06
2018-06-29T13:32:22.622Z,101096.17
2018-06-29T13:34:49.658Z,101105.59
2018-06-29T13:37:16.793Z,101103.16
2018-06-29T13:39:44.015Z,101097.62
2018-06-29T13:42:11.125Z,101099.01
2018-06-29T13:44:38.175Z,101112.89
2018-06-29T13:47:05.229Z,101108.97
2018-06-29T13:49:32.321Z,101107.03
2018-06-29T13:51:59.345Z,101105.78
2018-06-29T13:54:26.365Z,101103.62
2018-06-29T13:56:53.494Z,101096.81
2018-06-29T13:59:20.622Z,101100.62
2018-06-29T14:01:47.668Z,101101.58
2018-06-29T14:04:14.826Z,101098.37
2018-06-29T14:06:41.936Z,101103.55
2018-06-29T14:09:09.065Z,101109.66
2018-06-29T14:11:36.094Z,101110.16
2018-06-29T14:14:03.169Z,101107.86
2018-06-29T14:16:30.273Z,101095.56
2018-06-29T14:18:57.294Z,101108.48
2018-06-29T14:21:24.319Z,101107.67
2018-06-29T14:23:51.444Z,101111.21
2018-06-29T14:26:18.485Z,101104.55
2018-06-29T14:28:45.573Z,101100.69
2018-06-29T14:31:12.670Z,101104.23
2018-06-29T14:33:39.796Z,101105.05
2018-06-29T14:36:06.898Z,101100.36
2018-06-29T14:38:33.962Z,101105.11
2018-06-29T14:41:01.059Z,101108.94
2018-06-29T14:43:28.014Z,101108.52
2018-06-29T14:45:55.227Z,101113.24
2018-06-29T14:48:22.252Z,101107.23
2018-06-29T14:50:49.348Z,101110.65
2018-06-29T14:53:16.393Z,101104.23
2018-06-29T14:55:43.441Z,101110.98
2018-06-29T14:58:10.469Z,101112.30
2018-06-29T15:00:37.532Z,101110.65
2018-06-29T15:03:04.677Z,101114.53
2018-06-29T15:05:31.811Z,101108.97
2018-06-29T15:07:58.916Z,101111.09
2018-06-29T15:10:26.021Z,101104.23
2018-06-29T15:12:53.035Z,101108.09
2018-06-29T15:15:20.073Z,101108.09
2018-06-29T15:17:47.146Z,101108.50
2018-06-29T15:20:14.176Z,101105.95
2018-06-29T15:22:41.195Z,101110.27
2018-06-29T15:25:08.749Z,101103.81
2018-06-29T15:27:35.857Z,101110.20
2018-06-29T15:30:04.040Z,101098.23
2018-06-29T15:32:31.062Z,101101.67
2018-06-29T15:34:58.129Z,101107.17
2018-06-29T15:37:25.170Z,101096.91
2018-06-29T15:39:52.317Z,101104.63
2018-06-29T15:42:19.399Z,101100.82
2018-06-29T15:44:46.509Z,101098.65
2018-06-29T15:47:13.597Z,101105.44
2018-06-29T15:49:40.703Z,101107.59
2018-06-29T15:52:07.813Z,101099.02
2018-06-29T15:54:34.912Z,101093.05
2018-06-29T15:57:01.961Z,101101.66
2018-06-29T15:59:29.035Z,101102.90
2018-06-29T16:01:56.072Z,101097.38
2018-06-29T16:04:23.107Z,101095.61
2018-06-29T16:06:50.254Z,101097.30
2018-06-29T16:09:17.366Z,101092.62
2018-06-29T16:13:56.081Z,101096.02
2018-06-29T16:16:23.095Z,101102.84
2018-06-29T16:18:50.116Z,101094.98
2018-06-29T16:21:17.241Z,101101.35
2018-06-29T16:23:44.287Z,101095.39
2018-06-29T16:26:11.347Z,101100.28
2018-06-29T16:28:38.374Z,101097.81
2018-06-29T16:31:05.416Z,101102.45
2018-06-29T16:33:32.703Z,101096.80
2018-06-29T16:35:59.800Z,101099.30
2018-06-29T16:38:26.912Z,101089.76
2018-06-29T16:40:54.023Z,101095.34
2018-06-29T16:43:21.066Z,101098.92
2018-06-29T16:45:48.113Z,101095.06
2018-06-29T16:48:15.234Z,101107.08
2018-06-29T16:50:42.316Z,101103.35
2018-06-29T16:53:09.369Z,101106.65
2018-06-29T16:55:36.394Z,101105.54
2018-06-29T16:58:03.533Z,101096.05
2018-06-29T17:00:30.889Z,101099.20
2018-06-29T17:02:57.895Z,101097.23
2018-06-29T17:05:25.045Z,101100.66
2018-06-29T17:07:52.085Z,101107.02
2018-06-29T17:10:19.185Z,101103.97
2018-06-29T17:12:46.202Z,101100.31
2018-06-29T17:15:13.260Z,101095.06
2018-06-29T17:17:40.388Z,101103.33
2018-06-29T17:20:07.672Z,101103.27
2018-06-29T17:22:34.936Z,101106.62
2018-06-29T17:25:01.977Z,101097.91
2018-06-29T17:27:28.977Z,101105.48
2018-06-29T17:29:55.999Z,101110.80
2018-06-29T17:32:23.045Z,101106.02
2018-06-29T17:34:50.066Z,101104.63
2018-06-29T17:37:17.224Z,101103.34
2018-06-29T17:39:44.350Z,101110.34
2018-06-29T17:42:11.365Z,101106.28
2018-06-29T17:44:38.515Z,101101.41
2018-06-29T17:47:05.613Z,101105.67
2018-06-29T17:49:32.741Z,101107.30
2018-06-29T17:51:59.785Z,101095.05
2018-06-29T17:54:26.805Z,101104.00
2018-06-29T17:56:53.814Z,101098.88
2018-06-29T17:59:20.913Z,101094.09
2018-06-29T18:01:48.015Z,101098.60
2018-06-29T18:04:15.229Z,101103.33
2018-06-29T18:06:42.221Z,101104.55
2018-06-29T18:09:10.451Z,101107.47
2018-06-29T18:11:37.568Z,101103.00
2018-06-29T18:14:04.707Z,101105.26
2018-06-29T18:16:31.790Z,101111.37
2018-06-29T18:18:58.923Z,101114.20
2018-06-29T18:21:26.003Z,101109.80
2018-06-29T18:23:53.046Z,101117.89
2018-06-29T18:26:20.052Z,101117.37
2018-06-29T18:28:47.259Z,101117.37
2018-06-29T18:31:14.351Z,101124.20
2018-06-29T18:33:41.473Z,101127.25
2018-06-29T18:36:08.497Z,101131.03
2018-06-29T18:38:35.493Z,101138.37
2018-06-29T18:41:02.509Z,101138.11
2018-06-29T18:43:29.589Z,101132.33
2018-06-29T18:45:56.624Z,101133.74
2018-06-29T18:48:23.694Z,101137.41
2018-06-29T18:50:50.733Z,101136.31
2018-06-29T18:53:17.830Z,101139.73
2018-06-29T18:55:44.902Z,101135.80
2018-06-29T18:58:11.921Z,101143.65
2018-06-29T19:00:39.009Z,101144.92
2018-06-29T19:03:06.030Z,101141.29
2018-06-29T19:05:33.148Z,101143.73
2018-06-29T19:08:00.265Z,101145.70
2018-06-29T19:10:27.304Z,101153.89
2018-06-29T19:12:54.305Z,101157.19
2018-06-29T19:15:21.374Z,101155.44
2018-06-29T19:17:48.477Z,101155.16
2018-06-29T19:20:15.605Z,101156.43
2018-06-29T19:22:42.701Z,101155.55
2018-06-29T19:25:09.770Z,101157.80
2018-06-29T19:27:36.812Z,101157.48
2018-06-29T19:30:04.499Z,101159.21
2018-06-29T19:32:31.501Z,101166.59
2018-06-29T19:34:58.507Z,101163.66
2018-06-29T19:37:25.626Z,101175.67
2018-06-29T19:39:52.658Z,101176.75
2018-06-29T19:42:19.673Z,101180.04
2018-06-29T19:44:46.826Z,101181.65
2018-06-29T19:47:13.866Z,101181.11
2018-06-29T19:49:41.135Z,101193.20
2018-06-29T19:52:08.355Z,101189.66
2018-06-29T19:54:35.389Z,101190.42
2018-06-29T19:57:02.496Z,101194.23
2018-06-29T19:59:29.900Z,101195.52
2018-06-29T20:01:57.085Z,101205.25
2018-06-29T20:04:24.143Z,101203.73
2018-06-29T20:06:51.254Z,101197.00
2018-06-29T20:09:18.374Z,101207.58
2018-06-29T20:11:45.452Z,101206.13
2018-06-29T20:14:13.558Z,101202.31
2018-06-29T20:16:40.584Z,101206.61
2018-06-29T20:19:07.633Z,101203.84
2018-06-29T20:21:34.753Z,101208.37
2018-06-29T20:24:01.785Z,101205.93
2018-06-29T20:26:28.785Z,101207.62
2018-06-29T20:28:55.798Z,101209.63
2018-06-29T20:31:22.896Z,101205.25
2018-06-29T20:33:50.022Z,101204.00
2018-06-29T20:36:17.044Z,101204.45
2018-06-29T20:38:44.229Z,101203.77
2018-06-29T20:41:11.158Z,101214.64
2018-06-29T20:43:38.314Z,101208.73
2018-06-29T20:46:05.277Z,101208.27
2018-06-29T20:48:32.574Z,101208.14
2018-06-29T20:50:59.654Z,101207.38
2018-06-29T20:53:26.729Z,101207.17
2018-06-29T20:55:53.936Z,101216.44
2018-06-29T20:58:20.977Z,101215.37
2018-06-29T21:00:48.075Z,101214.38
2018-06-29T21:03:15.117Z,101222.22
2018-06-29T21:05:42.119Z,101215.44
2018-06-29T21:08:09.381Z,101219.58
2018-06-29T21:10:36.551Z,101222.11
2018-06-29T21:13:03.650Z,101222.11
2018-06-29T21:15:30.675Z,101219.72
2018-06-29T21:17:57.758Z,101223.83
2018-06-29T21:20:24.777Z,101224.19
2018-06-29T21:22:51.866Z,101222.42
2018-06-29T21:25:18.962Z,101234.67
2018-06-29T21:27:45.937Z,101228.82
2018-06-29T21:30:12.970Z,101229.39
2018-06-29T21:32:40.186Z,101232.25
2018-06-29T21:35:07.340Z,101240.69
2018-06-29T21:37:34.465Z,101241.68
2018-06-29T21:40:01.482Z,101242.23
2018-06-29T21:42:28.555Z,101242.85
2018-06-29T21:44:55.696Z,101236.91
2018-06-29T21:47:22.886Z,101243.13
2018-06-29T21:49:49.905Z,101244.53
2018-06-29T21:52:17.092Z,101248.47
2018-06-29T21:54:44.335Z,101248.11
2018-06-29T21:57:11.540Z,101248.38
2018-06-29T21:59:38.541Z,101252.12
2018-06-29T22:02:05.707Z,101249.98
2018-06-29T22:04:32.717Z,101252.94
2018-06-29T22:06:59.738Z,101252.66
2018-06-29T22:09:26.777Z,101255.27
2018-06-29T22:11:53.808Z,101257.72
2018-06-29T22:14:20.849Z,101259.57
2018-06-29T22:16:47.932Z,101259.58
2018-06-29T22:19:15.090Z,101262.69
2018-06-29T22:21:42.175Z,101262.38
2018-06-29T22:24:09.185Z,101266.35
2018-06-29T22:26:36.262Z,101264.94
2018-06-29T22:29:03.461Z,101266.03
2018-06-29T22:31:30.473Z,101268.45
2018-06-29T22:33:57.728Z,101269.20
2018-06-29T22:36:26.249Z,101270.69
2018-06-29T22:38:53.370Z,101270.06
2018-06-29T22:41:20.432Z,101278.95
2018-06-29T22:43:47.534Z,101280.59
2018-06-29T22:46:14.654Z,101280.23
2018-06-29T22:48:41.749Z,101279.27
2018-06-29T22:51:08.800Z,101286.02
2018-06-29T22:53:35.901Z,101278.58
2018-06-29T22:56:02.989Z,101279.78
2018-06-29T22:58:30.177Z,101280.20
2018-06-29T23:00:57.264Z,101283.28
2018-06-29T23:03:28.873Z,101285.81
2018-06-29T23:05:55.899Z,101284.04
2018-06-29T23:08:23.085Z,101286.52
2018-06-29T23:10:50.189Z,101291.74
2018-06-29T23:13:17.197Z,101287.33
2018-06-29T23:15:44.228Z,101288.34
2018-06-29T23:18:11.418Z,101289.55
2018-06-29T23:20:38.502Z,101296.45
2018-06-29T23:23:05.613Z,101300.39
2018-06-29T23:25:32.621Z,101297.77
2018-06-29T23:27:59.721Z,101301.91
2018-06-29T23:30:26.834Z,101297.50
2018-06-29T23:32:53.884Z,101295.92
2018-06-29T23:35:20.897Z,101297.59
2018-06-29T23:37:47.931Z,101296.35
2018-06-29T23:40:14.947Z,101300.49
2018-06-29T23:42:41.989Z,101307.07
2018-06-29T23:45:09.073Z,101309.52
2018-06-29T23:47:36.176Z,101308.16
2018-06-29T23:50:03.242Z,101307.06
2018-06-29T23:52:30.651Z,101300.88
2018-06-29T23:54:57.672Z,101301.82
2018-06-29T23:57:24.754Z,101304.20
2018-06-29T23:59:51.867Z,101302.13
